createdAt,value
2022-10-30T00:00:17.381Z,0
2022-10-30T00:05:17.577Z,0
2022-10-30T00:10:17.331Z,0
2022-10-30T00:30:58.565Z,0
2022-10-30T00:36:10.206Z,0
2022-10-30T00:40:44.853Z,0
2022-10-30T00:45:27.697Z,0
2022-10-30T00:50:17.633Z,0
2022-10-30T00:55:27.084Z,0
2022-10-30T01:00:17.355Z,0
2022-10-30T01:05:17.387Z,0
2022-10-30T01:10:17.444Z,0
2022-10-30T01:15:17.411Z,0
2022-10-30T01:21:38.058Z,0
2022-10-30T01:25:18.464Z,0
2022-10-30T01:30:17.648Z,0
2022-10-30T01:35:17.351Z,0
2022-10-30T01:40:17.418Z,0
2022-10-30T01:45:18.601Z,0
2022-10-30T01:50:17.371Z,0
2022-10-30T01:55:17.373Z,0
2022-10-30T02:00:17.324Z,0
2022-10-30T02:05:17.573Z,0
2022-10-30T02:10:17.387Z,0
2022-10-30T02:15:17.315Z,0
2022-10-30T02:20:55.163Z,0
2022-10-30T02:25:17.383Z,0
2022-10-30T02:30:17.433Z,0
2022-10-30T02:35:17.400Z,0
2022-10-30T02:40:17.370Z,0
2022-10-30T02:45:17.325Z,0
2022-10-30T02:50:17.354Z,0
2022-10-30T02:55:17.322Z,0
2022-10-30T03:00:17.356Z,0
2022-10-30T03:05:17.490Z,0
2022-10-30T03:15:17.334Z,0
2022-10-30T03:20:43.100Z,0
2022-10-30T03:25:17.407Z,0
2022-10-30T03:30:17.362Z,0
2022-10-30T03:35:17.357Z,0
2022-10-30T03:40:17.328Z,0
2022-10-30T03:45:17.338Z,0
2022-10-30T03:50:17.351Z,0
2022-10-30T03:55:17.362Z,0
2022-10-30T04:00:17.480Z,0
2022-10-30T04:05:17.373Z,0
2022-10-30T04:10:19.369Z,0
2022-10-30T04:15:17.362Z,0
2022-10-30T04:20:48.251Z,0
2022-10-30T04:25:17.407Z,0
2022-10-30T04:30:17.482Z,0
2022-10-30T04:35:17.400Z,0
2022-10-30T04:40:17.381Z,0
2022-10-30T04:45:17.462Z,0
2022-10-30T04:50:17.385Z,0
2022-10-30T04:55:17.369Z,0
2022-10-30T05:00:17.475Z,0
2022-10-30T05:05:17.543Z,0
2022-10-30T05:10:17.392Z,0
2022-10-30T05:15:17.377Z,0
2022-10-30T05:20:37.402Z,0
2022-10-30T05:25:17.478Z,0
2022-10-30T05:30:17.420Z,0
2022-10-30T05:35:17.436Z,0
2022-10-30T05:40:17.364Z,0
2022-10-30T05:45:17.401Z,257
2022-10-30T05:50:17.426Z,269
2022-10-30T05:55:17.428Z,284
2022-10-30T06:00:17.611Z,283
2022-10-30T06:05:17.399Z,290
2022-10-30T06:10:19.009Z,300
2022-10-30T06:15:17.490Z,325
2022-10-30T06:21:53.606Z,356
2022-10-30T06:25:17.439Z,371
2022-10-30T06:30:17.944Z,394
2022-10-30T06:35:17.402Z,429
2022-10-30T06:40:17.422Z,478
2022-10-30T06:45:17.452Z,538
2022-10-30T06:50:17.383Z,584
2022-10-30T06:55:17.468Z,604
2022-10-30T07:00:17.405Z,637
2022-10-30T07:05:17.388Z,661
2022-10-30T07:10:17.467Z,703
2022-10-30T07:15:17.455Z,724
2022-10-30T07:25:17.472Z,842
2022-10-30T07:30:17.495Z,899
2022-10-30T07:35:17.403Z,1000
2022-10-30T07:40:17.423Z,976
2022-10-30T07:45:18.534Z,1013
2022-10-30T07:50:17.445Z,1062
2022-10-30T07:55:17.416Z,1226
2022-10-30T08:00:17.437Z,1614
2022-10-30T08:05:17.458Z,1190
2022-10-30T08:10:17.408Z,1315
2022-10-30T08:15:17.399Z,2241
2022-10-30T08:21:22.170Z,3934
2022-10-30T08:25:17.649Z,7077
2022-10-30T08:30:22.694Z,7760
2022-10-30T08:35:19.958Z,8998
2022-10-30T08:40:17.502Z,9466
2022-10-30T08:45:17.407Z,8753
2022-10-30T08:50:17.557Z,9476
2022-10-30T08:55:17.437Z,9792
2022-10-30T09:00:17.577Z,9912
2022-10-30T09:05:20.415Z,11896
2022-10-30T09:10:17.535Z,10026
2022-10-30T09:15:17.410Z,12586
2022-10-30T09:21:09.576Z,13195
2022-10-30T09:25:17.467Z,11587
2022-10-30T09:30:17.467Z,1683
2022-10-30T09:35:17.440Z,1432
2022-10-30T09:40:17.448Z,1513
2022-10-30T09:45:29.025Z,1450
2022-10-30T09:50:17.442Z,1375
2022-10-30T09:55:17.477Z,1294
2022-10-30T10:00:17.489Z,1202
2022-10-30T10:05:17.482Z,1142
2022-10-30T10:10:17.551Z,1087
2022-10-30T10:15:17.455Z,1037
2022-10-30T10:22:17.936Z,980
2022-10-30T10:25:17.574Z,971
2022-10-30T10:30:17.463Z,944
2022-10-30T10:35:17.499Z,908
2022-10-30T10:40:17.513Z,866
2022-10-30T10:45:17.460Z,826
2022-10-30T10:50:17.444Z,814
2022-10-30T10:55:17.537Z,808
2022-10-30T11:00:17.440Z,799
2022-10-30T11:05:17.457Z,765
2022-10-30T11:10:17.567Z,750
2022-10-30T11:15:17.536Z,760
2022-10-30T11:20:58.006Z,733
2022-10-30T11:25:17.755Z,746
2022-10-30T11:30:17.612Z,802
2022-10-30T11:35:17.542Z,863
2022-10-30T11:40:17.499Z,2114
2022-10-30T11:45:17.625Z,872
2022-10-30T11:50:17.515Z,812
2022-10-30T11:55:17.607Z,826
2022-10-30T12:00:17.532Z,822
2022-10-30T12:05:17.575Z,809
2022-10-30T12:10:17.648Z,792
2022-10-30T12:15:17.569Z,757
2022-10-30T12:21:56.720Z,751
2022-10-30T12:25:20.018Z,697
2022-10-30T12:30:17.524Z,679
2022-10-30T12:35:17.455Z,711
2022-10-30T12:40:17.469Z,768
2022-10-30T12:45:17.487Z,623
2022-10-30T12:50:17.542Z,679
2022-10-30T12:55:18.996Z,664
2022-10-30T13:00:17.541Z,696
2022-10-30T13:05:17.466Z,696
2022-10-30T13:10:17.488Z,728
2022-10-30T13:15:17.502Z,985
2022-10-30T13:21:18.153Z,782
2022-10-30T13:25:17.515Z,660
2022-10-30T13:30:17.497Z,613
2022-10-30T13:35:17.485Z,576
2022-10-30T13:40:17.527Z,604
2022-10-30T13:45:17.483Z,590
2022-10-30T13:50:17.555Z,577
2022-10-30T13:55:17.505Z,518
2022-10-30T14:00:17.538Z,441
2022-10-30T14:05:17.466Z,442
2022-10-30T14:10:17.499Z,419
2022-10-30T14:15:17.534Z,391
2022-10-30T14:21:53.725Z,383
2022-10-30T14:25:17.559Z,356
2022-10-30T14:30:17.488Z,362
2022-10-30T14:35:17.486Z,368
2022-10-30T14:40:17.636Z,387
2022-10-30T14:45:17.536Z,396
2022-10-30T14:50:17.543Z,397
2022-10-30T14:55:17.550Z,399
2022-10-30T15:00:17.509Z,403
2022-10-30T15:05:17.505Z,399
2022-10-30T15:10:17.592Z,386
2022-10-30T15:15:17.569Z,370
2022-10-30T15:21:29.183Z,358
2022-10-30T15:25:17.618Z,344
2022-10-30T15:30:20.642Z,325
2022-10-30T15:35:17.625Z,306
2022-10-30T15:40:17.540Z,288
2022-10-30T15:45:17.547Z,274
2022-10-30T15:50:17.562Z,267
2022-10-30T15:55:17.506Z,262
2022-10-30T16:05:17.547Z,257
2022-10-30T16:10:17.562Z,0
2022-10-30T16:15:17.582Z,0
2022-10-30T16:21:28.344Z,0
2022-10-30T16:25:17.602Z,0
2022-10-30T16:30:17.520Z,0
2022-10-30T16:35:17.541Z,0
2022-10-30T16:40:17.569Z,0
2022-10-30T16:45:17.625Z,0
2022-10-30T16:50:17.564Z,0
2022-10-30T16:55:17.566Z,0
2022-10-30T17:00:17.509Z,0
2022-10-30T17:05:17.653Z,0
2022-10-30T17:10:17.512Z,0
2022-10-30T17:15:17.571Z,0
2022-10-30T17:21:34.875Z,0
2022-10-30T17:25:17.620Z,0
2022-10-30T17:30:17.513Z,0
2022-10-30T17:35:17.591Z,0
2022-10-30T17:40:17.595Z,0
2022-10-30T17:45:18.574Z,0
2022-10-30T17:50:18.567Z,0
2022-10-30T17:55:18.521Z,0
2022-10-30T18:00:18.593Z,0
2022-10-30T18:05:18.537Z,0
2022-10-30T18:10:18.582Z,0
2022-10-30T18:15:18.526Z,0
2022-10-30T18:20:54.069Z,0
2022-10-30T18:25:18.621Z,0
2022-10-30T18:30:18.623Z,0
2022-10-30T18:35:18.565Z,0
2022-10-30T18:40:20.318Z,0
2022-10-30T18:45:18.542Z,0
2022-10-30T18:50:18.546Z,0
2022-10-30T18:55:18.612Z,0
2022-10-30T19:00:18.553Z,0
2022-10-30T19:05:18.637Z,0
2022-10-30T19:10:18.669Z,0
2022-10-30T19:15:18.579Z,0
2022-10-30T19:21:04.253Z,0
2022-10-30T19:25:18.701Z,0
2022-10-30T19:30:19.030Z,0
2022-10-30T19:35:18.649Z,0
2022-10-30T19:40:18.603Z,0
2022-10-30T19:45:18.561Z,0
2022-10-30T19:50:18.630Z,0
2022-10-30T19:55:18.571Z,0
2022-10-30T20:00:18.629Z,0
2022-10-30T20:05:18.579Z,0
2022-10-30T20:10:18.668Z,0
2022-10-30T20:15:18.691Z,0
2022-10-30T20:21:22.147Z,0
2022-10-30T20:25:18.581Z,0
2022-10-30T20:30:18.702Z,0
2022-10-30T20:35:18.595Z,0
2022-10-30T20:40:18.622Z,0
2022-10-30T20:45:18.601Z,0
2022-10-30T20:50:18.596Z,0
2022-10-30T20:55:19.797Z,0
2022-10-30T21:00:18.598Z,0
2022-10-30T21:05:38.446Z,0
2022-10-30T21:10:18.577Z,0
2022-10-30T21:15:18.581Z,0
2022-10-30T21:25:18.628Z,0
2022-10-30T21:30:18.633Z,0
2022-10-30T21:35:18.575Z,0
2022-10-30T21:40:18.732Z,0
2022-10-30T21:45:18.629Z,0
2022-10-30T21:50:18.670Z,0
2022-10-30T21:55:18.626Z,0
2022-10-30T22:00:18.627Z,0
2022-10-30T22:05:18.673Z,0
2022-10-30T22:10:18.601Z,0
2022-10-30T22:15:18.667Z,0
2022-10-30T22:25:18.698Z,0
2022-10-30T22:30:18.658Z,0
2022-10-30T22:35:18.597Z,0
2022-10-30T22:40:18.731Z,0
2022-10-30T22:45:18.596Z,0
2022-10-30T22:50:18.642Z,0
2022-10-30T22:55:18.640Z,0
2022-10-30T23:00:19.344Z,0
2022-10-30T23:05:18.609Z,0
2022-10-30T23:10:18.676Z,0
2022-10-30T23:15:18.717Z,0
2022-10-30T23:20:49.154Z,0
2022-10-30T23:25:18.674Z,0
2022-10-30T23:30:18.597Z,0
2022-10-30T23:35:18.694Z,0
2022-10-30T23:40:18.644Z,0
2022-10-30T23:45:18.672Z,0
2022-10-30T23:50:18.602Z,0
2022-10-30T23:55:18.668Z,0
